Questo sito fa uso di cookie per migliorare l’esperienza di navigazione degli utenti e per raccogliere informazioni sull’utilizzo del sito stesso. Proseguendo nella navigazione si accetta l’uso dei cookie; in caso contrario è possibile abbandonare il sito.

[source: ADDS]
METAR
LIPA 240755Z 11006KT 9999 FEW040CB SCT070 20/18 Q1006 RMK BKN VIS MIN 9999 WIND THR05 00000KT WIND THR23 12004KT A2971 BLU =
LIPB 240750Z 27004KT 220V330 9999 FEW035 SCT110 23/17 Q1006 =
LIPC 240755Z 22001KT 9999 FEW050 27/22 Q1006 RMK BKN BKN110 VIS MIN 9999 WIND THR11 22003KT WIND THR29 22003KT BLU =
LIPE 240820Z 10003KT 020V170 9999 SCT050 SCT080 28/18 Q1007 =
LIPF 240755Z 03001KT 9999 FEW050 SCT070 27/22 Q1005 RMK BKN VIS MIN 9999 =
LIPH 240820Z 07006KT 010V120 CAVOK 25/15 Q1006 =
LIPI 240755Z 06008KT 9999 FEW025CB SCT035 19/16 Q1006 RETS RMK BKN VIS MIN 9999 WIND THR06 06007KT WIND THR24 07008KT BLU =
LIPK 240800Z 28005KT 9999 FEW045 30/18 Q1005 =
LIPL 240755Z /////KT 9999 FEW030 BKN042 24/17 Q1005 RMK BKN VIS MIN 9999 WIND THR31 06006KT BLU =
LIPO 240750Z 05008KT 9999 SCT040 24/17 Q1005 =
LIPQ 240820Z 08010KT 9999 SCT050 20/17 Q1006 =
LIPR 240815Z 21005KT CAVOK 29/19 Q1006 =
LIPS 240755Z 14006KT 9999 FEW080 25/19 Q1006 RMK FEW VIS MIN 9999 WIND THR26 12004KT WIND THR08 11006KT BLU =
LIPX 240820Z 10003KT 030V150 9999 SCT060 27/17 Q1005 =
LIPY 240750Z 14005KT 090V200 9999 FEW040 31/10 Q1005 =
LIPZ 240820Z 07008KT 040V110 CAVOK 25/15 Q1006 NOSIG =
LIVC 240755Z 22006G20KT 1500 BR BKN000 12/10 Q1018 RMK BKN MON INVIS VAL INVIS VIS MIN 1500 =
LIVD 240755Z /////KT 9999 BKN020 14/14 Q1013 RETS RMK OVC SCT060 VIS MIN 9999 =
LIVE 240755Z 03005KT 9999 SCT022 13/10 Q1011 RMK SCT VIS MIN 9999 =
LIVF 240755Z 20003KT 9999 FEW035 26/13 Q1007 RMK BKN SCT080 MON LIB VAL NIL VIS MIN 9999 =
LIVO 240755Z 09001KT 4000 TSRA BR SCT012CB BKN015 15/13 Q1010 RMK OVC VIS MIN 4000 =
LIVP 240755Z 24008KT 9999 FEW010TCU 10/05 Q1013 RMK BKN SCT070 MON CLD SCT VAL CLD SCT VIS MIN 9999 =
LIVR 240755Z 33004KT CAVOK 13/06 Q1014 RMK SCT SCT070 MON LIB VIS MIN 9999 =
LIVT 240755Z 08007G23KT 9999 FEW040 22/17 Q1006 RMK BKN SCT070 QUK 2 QUL 1 NE VIS MAR 20 KM VIS MIN 9999 =
LIMC 240820Z 03006KT 350V060 9999 VCTS FEW025CB BKN030 24/17 Q1006 NOSIG =
LIME 240820Z VRB02KT 9999 SCT015 FEW020CB BKN040 24/17 Q1006 NOSIG =
LIMF 240820Z 13003KT 030V180 9999 SCT070 25/16 Q1006 =
LIMG 240750Z 21005KT 8000 SCT030 26/21 Q1006 =
LIMH 240755Z /////KT 9999 FEW000 BKN020 M01/M03 Q1020 RMK BKN MON CLD SCT VAL CLD SCT VIS MIN 9999 =
LIMJ 240820Z 13015KT 9999 FEW015 BKN020 26/22 Q1006 =
LIMK 240755Z 28004KT CAVOK 21/15 Q1009 RMK FEW FEW100 VAL NIL VIS MIN 9999 =
LIML 240820Z 22005KT 190V250 9999 SHRA FEW020 SCT025TCU BKN040 24/19 Q1005 BECMG TS =
LIMN 240755Z 34006KT 9999 TS FEW020CB BKN025 23/18 Q1006 RMK BKN VIS MIN 9999 BLU =
LIMS 240755Z 06005KT 9000 FEW070 25/25 Q1005 RMK BKN SCT100 VIS MIN 9000 WIND THR30 05006KT BLU =
LIMT 240755Z 18020KT 1400 FG OVC008 18/16 Q1010 RMK OVC MON INVIS VAL INVIS VIS MIN 1400 =
LIMU 240755Z 00000KT 9999 FEW013 23/21 Q1007 RMK BKN SCT090 QUK 2 QUL 1 S VIS MAR 10 KM VIS MIN 9999 =
LIMV 240755Z /////KT 9999 SCT008 23/20 Q1008 RMK BKN SCT080 MON GEN INC VAL NIL VIS MIN 9999 =
LIMY 240755Z 20005KT CAVOK 21/18 Q1008 RMK SCT SCT070 VAL NIL VIS MIN 9999 =
TAF
TAF LIPA 240800Z 2409/2418 11005KT 9999 SCT030 BKN050 TEMPO 2409/2418 25015G35KT 2000 TSRA SCT020CB BKN030 =
TAF LIPB 240500Z 2406/2506 VRB05KT 9999 SCT025 BKN060 TEMPO 2406/2420 3000 TSRA =
TAF LIPC 240800Z 2409/2418 22005KT 9999 SCT030 SCT060 BECMG 2411/2413 24015KT TEMPO 2411/2415 5000 TSRA FEW020CB =
TAF LIPE 240500Z 2406/2506 20013KT 9999 SCT040 TEMPO 2412/2418 TSRA BECMG 2416/2418 VRB05KT =
TAF LIPH 240500Z 2406/2506 VRB06KT 9999 SCT040 TEMPO 2406/2420 3000 TSRA BECMG 2412/2415 04012KT BECMG 2420/2422 VRB05KT =
TAF LIPI 240800Z 2409/2418 09010KT 9999 SCT020 SCT080 TEMPO 2412/2418 4000 TSRA FEW020CB BKN025 =
TAF LIPL 240800Z 2409/2418 06005KT 9999 FEW030 SCT050 TEMPO 2410/2415 5000 TSRA FEW020CB SCT030 =
TAF LIPO 240500Z 2406/2506 VRB05KT 9999 BKN050 TEMPO 2406/2418 4000 TSRA BKN012CB =
TAF LIPQ 240500Z 2406/2506 VRB05KT 9999 SCT030 BECMG 2408/2410 20010KT TEMPO 2409/2420 4000 TSRA BECMG 2418/2420 02012KT BECMG 2500/2502 VRB05KT =
TAF LIPR 240800Z 2409/2418 14005KT 9999 SCT030 BECMG 2410/2412 23015KT TEMPO 2409/2415 5000 SHRA FEW020CB BKN030 =
TAF LIPS 240800Z 2409/2418 15006KT 9999 FEW030 SCT070 TEMPO 2411/2415 22015KT 5000 TSRA FEW020CB SCT025 =
TAF LIPX 240800Z 2409/2418 VRB05KT 9999 SCT060 TEMPO 2409/2416 4000 TSRA =
TAF LIPY 240500Z 2406/2506 21008KT CAVOK BECMG 2407/2409 13012KT BECMG 2412/2415 23012KT BECMG 2421/2424 30012KT =
TAF LIPZ 240500Z 2406/2512 VRB06KT 9999 SCT030 TEMPO 2406/2418 3000 TSRA BECMG 2415/2418 03013KT BECMG 2500/2503 VRB05KT =
TAF LIMC 240500Z 2406/2512 VRB05KT 9999 SCT050 TEMPO 2406/2415 3000 TSRA =
TAF LIME 240500Z 2406/2506 VRB05KT 9999 BKN060 TEMPO 2406/2415 4000 TSRA BKN012CB =
TAF LIMF 240500Z 2406/2506 VRB05KT 9999 SCT060 PROB40 TEMPO 2406/2412 4000 TSRA =
TAF LIMJ 240500Z 2406/2506 15012KT 9999 SCT015 BKN025 TEMPO 2408/2415 TSRA =
TAF LIML 240500Z 2406/2506 VRB05KT 9999 BKN50 TEMPO 2406/2418 3000 TSRA BKN012CB =
TAF LIMN 240800Z 2409/2418 01010KT 9999 BKN040 TEMPO 2409/2415 4000 TSRA SCT020CB BKN030 =
TAF LIMS 240800Z 2409/2418 VRB05KT 9000 FEW080 TEMPO 2409/2415 5000 TSRA SCT020CB BKN030 =
SR / SS: 03:48 / 18:49 UTC (Effemeridi Aeroporto di Padova - LIPU 2017-07-24)

Immagini e previsioni meteo non aeronautiche

 

 

Immagini dal Radar Meteorologico del sito ARPAV. Orario UTC.

 

Immagine dal sito Meteo Sat Online

 

Legenda codici ICAO del nord Italia

 

In ordine di codice   In ordine di località
LIMC
Milano / Malpensa LIMG Albenga
LIME Bergamo / Orio Al Serio LIPA Aviano
LIMF Torino / Caselle LIME Bergamo / Orio Al Serio
LIMG Albenga LIPE Bologna / Borgo Panigale
LIMH Pian Rosa LIPB Bolzano
LIMJ Genova / Sestri LIPL Brescia / Ghedi
LIMK Torino / Bric Della Croce LIPO Brescia / Montichiari
LIML Milano / Linate LIMU Capo Mele
LIMN Novara / Cameri LIPC Cervia
LIMO Monte Bisbino LIVD Dobbiaco
LIMS Piacenza LIPP Dova Area Control Center
LIMT Passo Della Cisa LIPY Falconara
LIMU Capo Mele LIPF Ferrara
LIMV Passo Dei Giovi LIPK Forli
LIMY Monte Malanotte LIVF Frontone
LIPA Aviano LIMJ Genova / Sestri
LIPB Bolzano LIML Milano / Linate
LIPC Cervia
LIMC
Milano / Malpensa
LIPD Udine / Campoformido LIMO Monte Bisbino
LIPE Bologna / Borgo Panigale LIVC Monte Cimone
LIPF Ferrara LIMY Monte Malanotte
LIPH Treviso / S. Angelo LIMN Novara / Cameri
LIPI Udine / Rivolto LIPU Padova
LIPK Forli LIVP Paganella
LIPL Brescia / Ghedi LIMV Passo Dei Giovi
LIPO Brescia / Montichiari LIMT Passo Della Cisa
LIPP Dova Area Control Center LIVR Passo Rolle
LIPQ Ronchi Dei Legionari LIMS Piacenza
LIPR Rimini LIMH Pian Rosa
LIPS Treviso / Istrana LIVM Punta Marina
LIPT Vicenza LIVE Resia Pass
LIPU Padova LIPR Rimini
LIPX Verona / Villafranca LIPQ Ronchi Dei Legionari
LIPY Falconara LIVO Tarvisio
LIPZ Venezia / Tessera LIMK Torino / Bric Della Croce
LIVC Monte Cimone LIMF Torino / Caselle
LIVD Dobbiaco LIPS Treviso / Istrana
LIVE Resia Pass LIPH Treviso / S. Angelo
LIVF Frontone LIVT
Trieste
LIVM Punta Marina LIPD Udine / Campoformido
LIVO Tarvisio LIPI Udine / Rivolto
LIVP Paganella LIPZ Venezia / Tessera
LIVR Passo Rolle LIPX Verona / Villafranca
LIVT Trieste LIPT Vicenza

 

 

 

 

 

 

 

 

 

 

 

 

 

 

 

 

 

 

 

 

 

 

 

 

 

 

 

 

 

 

 

 

 

 

 

 

 

 

 

 

 

 

 

 

 

 

 

 

 

 

 

 

 

 

 

 

 

 

 

 

L'Aeroclub di Padova si limita a riportare informazioni fornite da terze parti, e non ha quindi alcuna responsabilità sul contenuto. Per la pianificazione dei propri voli si raccomanda l'utilizzo delle fonti ufficiali.

Copyright 2011. Free joomla templates | © Aeroclub Padova - Scuola di Volo, Ditta di manutenzione, CAMO Via Sorio, 89 - 35141 Padova Tel. 049 8718599 Fax 049 8717699 info@aeroclubpadova.it